createdAt,value
2023-02-04T05:43:51.487Z,-7.69
2023-02-04T05:46:18.593Z,-7.60
2023-02-04T05:48:45.281Z,-7.60
2023-02-04T05:51:11.895Z,-7.65
2023-02-04T05:53:40.087Z,-7.73
2023-02-04T05:56:07.486Z,-7.83
2023-02-04T05:58:34.461Z,-7.93
2023-02-04T08:13:35.874Z,-3.05
2023-02-04T08:16:32.325Z,-2.72
2023-02-04T08:19:12.027Z,-2.49
2023-02-04T08:21:53.943Z,-2.33
2023-02-04T08:27:53.188Z,-2.03
2023-02-04T08:31:15.644Z,-1.99
2023-02-04T08:34:05.030Z,-1.95
2023-02-04T08:36:50.450Z,-1.85
2023-02-04T08:39:30.365Z,-1.68
2023-02-04T08:42:02.340Z,-1.59
2023-02-04T08:44:44.046Z,-1.51
2023-02-04T08:47:27.956Z,-1.46
2023-02-04T08:49:57.021Z,-1.39
2023-02-04T08:52:37.279Z,-1.28
2023-02-04T08:55:14.214Z,-1.22
2023-02-04T08:58:03.720Z,-1.15
2023-02-04T09:04:43.129Z,-0.94
2023-02-04T09:08:21.961Z,-0.67
2023-02-04T09:11:20.771Z,-0.57
2023-02-04T09:13:53.672Z,-0.46
2023-02-04T09:16:34.948Z,-0.28
2023-02-04T09:19:08.530Z,-0.05
2023-02-04T09:21:38.073Z,0.17
2023-02-04T09:24:12.477Z,0.38
2023-02-04T09:26:49.435Z,0.51
2023-02-04T09:29:22.053Z,0.64
2023-02-04T09:31:53.631Z,0.75
2023-02-04T09:34:23.820Z,0.86
2023-02-04T09:36:55.441Z,0.94
2023-02-04T09:39:33.723Z,0.95
2023-02-04T09:42:11.622Z,0.93
2023-02-04T09:44:48.159Z,0.84
2023-02-04T09:47:17.572Z,0.75
2023-02-04T09:49:53.328Z,0.78
2023-02-04T09:52:25.173Z,0.87
2023-02-04T09:55:02.533Z,0.92
2023-02-04T09:57:34.063Z,1.00
2023-02-04T10:00:17.192Z,1.13
2023-02-04T10:02:55.638Z,1.14
2023-02-04T10:05:32.839Z,1.24
2023-02-04T10:08:19.930Z,1.29
2023-02-04T10:10:52.061Z,1.32
2023-02-04T10:13:34.111Z,1.45
2023-02-04T10:16:15.407Z,1.65
2023-02-04T10:18:47.176Z,1.84
2023-02-04T10:21:17.841Z,1.95
2023-02-04T10:23:51.338Z,1.97
2023-02-04T10:26:29.808Z,2.10
2023-02-04T10:29:32.434Z,2.41
2023-02-04T10:32:37.642Z,2.95
2023-02-04T10:35:17.386Z,3.42
2023-02-04T10:37:50.947Z,3.60
2023-02-04T10:40:35.779Z,4.12
2023-02-04T10:43:12.582Z,4.84
2023-02-04T10:45:49.306Z,5.51
2023-02-04T10:48:27.826Z,6.06
2023-02-04T10:51:01.072Z,6.64
2023-02-04T10:54:03.036Z,7.18
2023-02-04T10:56:38.137Z,7.41
2023-02-04T10:59:09.824Z,7.49
2023-02-04T11:01:43.984Z,7.61
2023-02-04T11:04:18.632Z,7.54
2023-02-04T11:06:54.550Z,7.53
2023-02-04T11:09:26.740Z,7.61
2023-02-04T11:12:00.928Z,7.86
2023-02-04T11:14:32.604Z,8.16
2023-02-04T11:17:05.693Z,8.51
2023-02-04T11:19:46.751Z,8.85
